sensor_id;sensor_type;location;lat;lon;timestamp;P1;durP1;ratioP1;P2;durP2;ratioP2
38208;SDS011;24016;52.102;11.584;2022-12-29T00:01:36;3.50;;;2.60;;
38208;SDS011;24016;52.102;11.584;2022-12-29T00:04:03;4.25;;;2.58;;
38208;SDS011;24016;52.102;11.584;2022-12-29T00:06:30;3.47;;;2.40;;
38208;SDS011;24016;52.102;11.584;2022-12-29T00:08:56;5.32;;;2.70;;
38208;SDS011;24016;52.102;11.584;2022-12-29T00:11:28;3.78;;;2.35;;
38208;SDS011;24016;52.102;11.584;2022-12-29T00:13:56;3.72;;;2.55;;
38208;SDS011;24016;52.102;11.584;2022-12-29T00:16:41;3.33;;;2.33;;
38208;SDS011;24016;52.102;11.584;2022-12-29T00:19:08;6.50;;;2.92;;
38208;SDS011;24016;52.102;11.584;2022-12-29T00:21:57;4.32;;;2.58;;
38208;SDS011;24016;52.102;11.584;2022-12-29T00:24:42;3.92;;;2.60;;
38208;SDS011;24016;52.102;11.584;2022-12-29T00:27:28;7.35;;;3.17;;
38208;SDS011;24016;52.102;11.584;2022-12-29T00:30:15;6.03;;;2.80;;
38208;SDS011;24016;52.102;11.584;2022-12-29T00:33:11;3.67;;;2.30;;
38208;SDS011;24016;52.102;11.584;2022-12-29T00:39:07;3.47;;;1.92;;
38208;SDS011;24016;52.102;11.584;2022-12-29T00:44:39;2.75;;;1.90;;
38208;SDS011;24016;52.102;11.584;2022-12-29T00:47:05;3.67;;;2.00;;
38208;SDS011;24016;52.102;11.584;2022-12-29T00:49:30;3.13;;;2.10;;
38208;SDS011;24016;52.102;11.584;2022-12-29T00:54:26;4.82;;;2.15;;
38208;SDS011;24016;52.102;11.584;2022-12-29T00:56:52;3.17;;;1.85;;
38208;SDS011;24016;52.102;11.584;2022-12-29T00:59:18;3.28;;;2.05;;
38208;SDS011;24016;52.102;11.584;2022-12-29T01:01:45;2.95;;;2.08;;
38208;SDS011;24016;52.102;11.584;2022-12-29T01:04:11;2.47;;;1.80;;
38208;SDS011;24016;52.102;11.584;2022-12-29T01:06:38;3.03;;;2.00;;
38208;SDS011;24016;52.102;11.584;2022-12-29T01:09:05;3.28;;;1.58;;
38208;SDS011;24016;52.102;11.584;2022-12-29T01:11:49;3.10;;;1.88;;
38208;SDS011;24016;52.102;11.584;2022-12-29T01:14:15;2.65;;;1.60;;
38208;SDS011;24016;52.102;11.584;2022-12-29T01:16:41;3.97;;;2.00;;
38208;SDS011;24016;52.102;11.584;2022-12-29T01:19:07;3.42;;;2.00;;
38208;SDS011;24016;52.102;11.584;2022-12-29T01:21:34;2.78;;;1.95;;
38208;SDS011;24016;52.102;11.584;2022-12-29T01:23:59;3.30;;;1.90;;
38208;SDS011;24016;52.102;11.584;2022-12-29T01:26:25;2.53;;;1.77;;
38208;SDS011;24016;52.102;11.584;2022-12-29T01:28:51;2.78;;;1.95;;
38208;SDS011;24016;52.102;11.584;2022-12-29T01:31:17;3.92;;;2.08;;
38208;SDS011;24016;52.102;11.584;2022-12-29T01:33:43;3.85;;;1.80;;
38208;SDS011;24016;52.102;11.584;2022-12-29T01:36:10;4.18;;;1.98;;
38208;SDS011;24016;52.102;11.584;2022-12-29T01:38:37;4.22;;;2.03;;
38208;SDS011;24016;52.102;11.584;2022-12-29T01:41:04;3.25;;;1.80;;
38208;SDS011;24016;52.102;11.584;2022-12-29T01:43:47;3.05;;;2.00;;
38208;SDS011;24016;52.102;11.584;2022-12-29T01:48:52;3.10;;;1.90;;
38208;SDS011;24016;52.102;11.584;2022-12-29T01:51:23;3.50;;;2.20;;
38208;SDS011;24016;52.102;11.584;2022-12-29T01:53:50;3.72;;;2.17;;
38208;SDS011;24016;52.102;11.584;2022-12-29T01:56:17;3.10;;;2.20;;
38208;SDS011;24016;52.102;11.584;2022-12-29T01:58:45;6.53;;;2.45;;
38208;SDS011;24016;52.102;11.584;2022-12-29T02:01:14;4.95;;;2.30;;
38208;SDS011;24016;52.102;11.584;2022-12-29T02:03:43;4.55;;;2.13;;
38208;SDS011;24016;52.102;11.584;2022-12-29T02:06:10;7.07;;;1.90;;
38208;SDS011;24016;52.102;11.584;2022-12-29T02:08:43;2.55;;;1.70;;
38208;SDS011;24016;52.102;11.584;2022-12-29T02:11:11;2.80;;;1.67;;
38208;SDS011;24016;52.102;11.584;2022-12-29T02:13:38;2.53;;;1.70;;
38208;SDS011;24016;52.102;11.584;2022-12-29T02:19:05;4.32;;;1.90;;
38208;SDS011;24016;52.102;11.584;2022-12-29T02:22:14;3.40;;;1.60;;
38208;SDS011;24016;52.102;11.584;2022-12-29T02:27:36;2.42;;;1.67;;
38208;SDS011;24016;52.102;11.584;2022-12-29T02:30:07;3.58;;;1.80;;
38208;SDS011;24016;52.102;11.584;2022-12-29T02:35:37;2.75;;;1.83;;
38208;SDS011;24016;52.102;11.584;2022-12-29T02:38:15;2.38;;;1.70;;
38208;SDS011;24016;52.102;11.584;2022-12-29T02:40:53;3.72;;;1.92;;
38208;SDS011;24016;52.102;11.584;2022-12-29T02:43:39;3.60;;;1.80;;
38208;SDS011;24016;52.102;11.584;2022-12-29T02:46:15;3.50;;;1.70;;
38208;SDS011;24016;52.102;11.584;2022-12-29T02:48:44;3.55;;;2.28;;
38208;SDS011;24016;52.102;11.584;2022-12-29T02:51:15;3.22;;;1.80;;
38208;SDS011;24016;52.102;11.584;2022-12-29T02:53:46;3.55;;;2.42;;
38208;SDS011;24016;52.102;11.584;2022-12-29T02:56:31;4.25;;;1.65;;
38208;SDS011;24016;52.102;11.584;2022-12-29T02:58:57;4.68;;;1.90;;
38208;SDS011;24016;52.102;11.584;2022-12-29T03:01:24;4.32;;;1.95;;
38208;SDS011;24016;52.102;11.584;2022-12-29T03:04:21;4.35;;;2.30;;
38208;SDS011;24016;52.102;11.584;2022-12-29T03:09:41;3.25;;;2.10;;
38208;SDS011;24016;52.102;11.584;2022-12-29T03:15:10;5.68;;;2.17;;
38208;SDS011;24016;52.102;11.584;2022-12-29T03:18:13;4.25;;;1.90;;
38208;SDS011;24016;52.102;11.584;2022-12-29T03:20:52;4.32;;;2.00;;
38208;SDS011;24016;52.102;11.584;2022-12-29T03:23:21;2.95;;;1.83;;
38208;SDS011;24016;52.102;11.584;2022-12-29T03:25:49;3.30;;;1.73;;
38208;SDS011;24016;52.102;11.584;2022-12-29T03:28:36;3.35;;;1.88;;
38208;SDS011;24016;52.102;11.584;2022-12-29T03:31:06;3.00;;;1.92;;
38208;SDS011;24016;52.102;11.584;2022-12-29T03:33:33;3.00;;;2.03;;
38208;SDS011;24016;52.102;11.584;2022-12-29T03:36:02;2.28;;;1.80;;
38208;SDS011;24016;52.102;11.584;2022-12-29T03:38:44;5.95;;;2.15;;
38208;SDS011;24016;52.102;11.584;2022-12-29T03:41:17;3.55;;;2.13;;
38208;SDS011;24016;52.102;11.584;2022-12-29T03:43:46;4.80;;;1.95;;
38208;SDS011;24016;52.102;11.584;2022-12-29T03:46:12;3.70;;;1.98;;
38208;SDS011;24016;52.102;11.584;2022-12-29T03:48:38;3.60;;;2.05;;
38208;SDS011;24016;52.102;11.584;2022-12-29T03:51:03;6.32;;;1.80;;
38208;SDS011;24016;52.102;11.584;2022-12-29T03:53:29;4.35;;;2.00;;
38208;SDS011;24016;52.102;11.584;2022-12-29T03:55:54;2.80;;;1.75;;
38208;SDS011;24016;52.102;11.584;2022-12-29T03:58:20;2.80;;;1.90;;
38208;SDS011;24016;52.102;11.584;2022-12-29T04:00:45;3.35;;;2.03;;
38208;SDS011;24016;52.102;11.584;2022-12-29T04:03:11;2.85;;;1.73;;
38208;SDS011;24016;52.102;11.584;2022-12-29T04:05:37;4.53;;;1.83;;
38208;SDS011;24016;52.102;11.584;2022-12-29T04:08:02;3.65;;;1.92;;
38208;SDS011;24016;52.102;11.584;2022-12-29T04:10:28;2.67;;;1.70;;
38208;SDS011;24016;52.102;11.584;2022-12-29T04:12:53;4.50;;;1.92;;
38208;SDS011;24016;52.102;11.584;2022-12-29T04:15:19;4.53;;;1.77;;
38208;SDS011;24016;52.102;11.584;2022-12-29T04:17:44;5.80;;;2.05;;
38208;SDS011;24016;52.102;11.584;2022-12-29T04:20:10;2.85;;;1.80;;
38208;SDS011;24016;52.102;11.584;2022-12-29T04:22:59;2.90;;;1.77;;
38208;SDS011;24016;52.102;11.584;2022-12-29T04:25:28;7.03;;;1.85;;
38208;SDS011;24016;52.102;11.584;2022-12-29T04:27:55;3.72;;;1.90;;
38208;SDS011;24016;52.102;11.584;2022-12-29T04:30:20;4.05;;;2.13;;
38208;SDS011;24016;52.102;11.584;2022-12-29T04:32:46;3.50;;;1.95;;
38208;SDS011;24016;52.102;11.584;2022-12-29T04:35:12;2.88;;;1.73;;
38208;SDS011;24016;52.102;11.584;2022-12-29T04:37:37;4.00;;;1.92;;
38208;SDS011;24016;52.102;11.584;2022-12-29T04:40:03;2.42;;;1.90;;
38208;SDS011;24016;52.102;11.584;2022-12-29T04:42:29;3.88;;;2.30;;
38208;SDS011;24016;52.102;11.584;2022-12-29T04:44:54;2.97;;;2.00;;
38208;SDS011;24016;52.102;11.584;2022-12-29T04:47:20;4.47;;;2.22;;
38208;SDS011;24016;52.102;11.584;2022-12-29T04:49:45;3.88;;;2.28;;
38208;SDS011;24016;52.102;11.584;2022-12-29T04:52:11;4.65;;;2.30;;
38208;SDS011;24016;52.102;11.584;2022-12-29T04:54:36;3.88;;;2.20;;
38208;SDS011;24016;52.102;11.584;2022-12-29T04:57:02;4.32;;;2.38;;
38208;SDS011;24016;52.102;11.584;2022-12-29T04:59:27;5.68;;;2.30;;
38208;SDS011;24016;52.102;11.584;2022-12-29T05:01:53;3.05;;;1.75;;
38208;SDS011;24016;52.102;11.584;2022-12-29T05:04:18;5.47;;;2.35;;
38208;SDS011;24016;52.102;11.584;2022-12-29T05:06:44;4.10;;;2.20;;
38208;SDS011;24016;52.102;11.584;2022-12-29T05:09:12;3.55;;;1.80;;
38208;SDS011;24016;52.102;11.584;2022-12-29T05:11:38;2.55;;;1.73;;
38208;SDS011;24016;52.102;11.584;2022-12-29T05:14:03;3.38;;;2.30;;
38208;SDS011;24016;52.102;11.584;2022-12-29T05:16:29;3.95;;;2.60;;
38208;SDS011;24016;52.102;11.584;2022-12-29T05:18:54;4.15;;;2.55;;
38208;SDS011;24016;52.102;11.584;2022-12-29T05:21:20;5.50;;;2.80;;
38208;SDS011;24016;52.102;11.584;2022-12-29T05:23:45;3.28;;;2.20;;
38208;SDS011;24016;52.102;11.584;2022-12-29T05:26:11;4.78;;;2.47;;
38208;SDS011;24016;52.102;11.584;2022-12-29T05:28:36;4.47;;;2.63;;
38208;SDS011;24016;52.102;11.584;2022-12-29T05:31:02;3.25;;;2.28;;
38208;SDS011;24016;52.102;11.584;2022-12-29T05:33:27;3.30;;;2.17;;
38208;SDS011;24016;52.102;11.584;2022-12-29T05:35:53;3.50;;;2.10;;
38208;SDS011;24016;52.102;11.584;2022-12-29T05:38:18;4.03;;;2.53;;
38208;SDS011;24016;52.102;11.584;2022-12-29T05:40:44;6.07;;;2.33;;
38208;SDS011;24016;52.102;11.584;2022-12-29T05:43:09;5.07;;;2.30;;
38208;SDS011;24016;52.102;11.584;2022-12-29T05:45:35;5.28;;;2.85;;
38208;SDS011;24016;52.102;11.584;2022-12-29T05:48:01;2.92;;;2.20;;
38208;SDS011;24016;52.102;11.584;2022-12-29T05:50:27;4.30;;;2.15;;
38208;SDS011;24016;52.102;11.584;2022-12-29T05:52:52;3.65;;;2.22;;
38208;SDS011;24016;52.102;11.584;2022-12-29T05:55:18;3.72;;;2.30;;
38208;SDS011;24016;52.102;11.584;2022-12-29T05:57:43;4.32;;;2.90;;
38208;SDS011;24016;52.102;11.584;2022-12-29T06:00:09;4.63;;;2.13;;
38208;SDS011;24016;52.102;11.584;2022-12-29T06:02:35;4.82;;;2.00;;
38208;SDS011;24016;52.102;11.584;2022-12-29T06:05:00;3.97;;;2.28;;
38208;SDS011;24016;52.102;11.584;2022-12-29T06:07:26;3.40;;;1.90;;
38208;SDS011;24016;52.102;11.584;2022-12-29T06:09:52;3.15;;;1.92;;
38208;SDS011;24016;52.102;11.584;2022-12-29T06:12:17;3.15;;;1.90;;
38208;SDS011;24016;52.102;11.584;2022-12-29T06:14:43;4.15;;;2.00;;
38208;SDS011;24016;52.102;11.584;2022-12-29T06:17:08;3.80;;;2.20;;
38208;SDS011;24016;52.102;11.584;2022-12-29T06:19:34;4.80;;;2.20;;
38208;SDS011;24016;52.102;11.584;2022-12-29T06:22:00;4.35;;;1.90;;
38208;SDS011;24016;52.102;11.584;2022-12-29T06:24:25;5.43;;;2.30;;
38208;SDS011;24016;52.102;11.584;2022-12-29T06:26:51;2.63;;;1.75;;
38208;SDS011;24016;52.102;11.584;2022-12-29T06:29:16;2.78;;;1.70;;
38208;SDS011;24016;52.102;11.584;2022-12-29T06:31:43;2.88;;;1.60;;
38208;SDS011;24016;52.102;11.584;2022-12-29T06:34:10;3.13;;;1.70;;
38208;SDS011;24016;52.102;11.584;2022-12-29T06:36:37;3.67;;;1.83;;
38208;SDS011;24016;52.102;11.584;2022-12-29T06:39:02;2.63;;;1.70;;
38208;SDS011;24016;52.102;11.584;2022-12-29T06:41:28;3.20;;;1.85;;
38208;SDS011;24016;52.102;11.584;2022-12-29T06:43:54;2.63;;;1.52;;
38208;SDS011;24016;52.102;11.584;2022-12-29T06:46:19;5.95;;;1.85;;
38208;SDS011;24016;52.102;11.584;2022-12-29T06:48:45;3.58;;;1.70;;
38208;SDS011;24016;52.102;11.584;2022-12-29T06:51:10;2.05;;;1.50;;
38208;SDS011;24016;52.102;11.584;2022-12-29T06:53:36;2.75;;;1.83;;
38208;SDS011;24016;52.102;11.584;2022-12-29T06:56:01;3.47;;;1.70;;
38208;SDS011;24016;52.102;11.584;2022-12-29T06:58:27;3.42;;;1.67;;
38208;SDS011;24016;52.102;11.584;2022-12-29T07:00:53;3.45;;;1.70;;
38208;SDS011;24016;52.102;11.584;2022-12-29T07:03:18;2.25;;;1.30;;
38208;SDS011;24016;52.102;11.584;2022-12-29T07:05:44;2.47;;;1.48;;
38208;SDS011;24016;52.102;11.584;2022-12-29T07:08:09;3.25;;;1.33;;
38208;SDS011;24016;52.102;11.584;2022-12-29T07:10:35;3.10;;;1.52;;
38208;SDS011;24016;52.102;11.584;2022-12-29T07:13:01;3.60;;;1.80;;
38208;SDS011;24016;52.102;11.584;2022-12-29T07:15:26;2.45;;;1.55;;
38208;SDS011;24016;52.102;11.584;2022-12-29T07:17:52;3.35;;;1.40;;
38208;SDS011;24016;52.102;11.584;2022-12-29T07:20:17;2.35;;;1.30;;
38208;SDS011;24016;52.102;11.584;2022-12-29T07:22:43;2.30;;;1.40;;
38208;SDS011;24016;52.102;11.584;2022-12-29T07:25:08;2.33;;;1.60;;
38208;SDS011;24016;52.102;11.584;2022-12-29T07:27:34;2.03;;;1.40;;
38208;SDS011;24016;52.102;11.584;2022-12-29T07:30:00;4.13;;;1.80;;
38208;SDS011;24016;52.102;11.584;2022-12-29T07:32:25;2.63;;;1.50;;
38208;SDS011;24016;52.102;11.584;2022-12-29T07:34:51;4.65;;;1.60;;
38208;SDS011;24016;52.102;11.584;2022-12-29T07:37:16;2.55;;;1.60;;
38208;SDS011;24016;52.102;11.584;2022-12-29T07:39:42;2.47;;;1.42;;
38208;SDS011;24016;52.102;11.584;2022-12-29T07:42:08;1.98;;;1.40;;
38208;SDS011;24016;52.102;11.584;2022-12-29T07:44:33;4.18;;;1.90;;
38208;SDS011;24016;52.102;11.584;2022-12-29T07:46:59;3.35;;;1.50;;
38208;SDS011;24016;52.102;11.584;2022-12-29T07:49:24;2.90;;;1.50;;
38208;SDS011;24016;52.102;11.584;2022-12-29T07:51:50;3.72;;;1.60;;
38208;SDS011;24016;52.102;11.584;2022-12-29T07:54:15;3.88;;;1.30;;
38208;SDS011;24016;52.102;11.584;2022-12-29T07:56:43;2.67;;;1.58;;
38208;SDS011;24016;52.102;11.584;2022-12-29T07:59:09;4.28;;;1.40;;
38208;SDS011;24016;52.102;11.584;2022-12-29T08:01:36;1.40;;;1.10;;
38208;SDS011;24016;52.102;11.584;2022-12-29T08:04:02;3.88;;;1.15;;
38208;SDS011;24016;52.102;11.584;2022-12-29T08:06:28;3.70;;;1.25;;
38208;SDS011;24016;52.102;11.584;2022-12-29T08:08:55;3.17;;;1.10;;
38208;SDS011;24016;52.102;11.584;2022-12-29T08:11:21;1.70;;;1.20;;
38208;SDS011;24016;52.102;11.584;2022-12-29T08:13:47;1.77;;;1.27;;
38208;SDS011;24016;52.102;11.584;2022-12-29T08:16:12;1.42;;;1.23;;
38208;SDS011;24016;52.102;11.584;2022-12-29T08:18:38;2.58;;;1.30;;
38208;SDS011;24016;52.102;11.584;2022-12-29T08:21:04;1.83;;;1.20;;
38208;SDS011;24016;52.102;11.584;2022-12-29T08:23:29;2.05;;;1.20;;
38208;SDS011;24016;52.102;11.584;2022-12-29T08:25:56;4.20;;;1.10;;
38208;SDS011;24016;52.102;11.584;2022-12-29T08:28:25;1.75;;;1.10;;
38208;SDS011;24016;52.102;11.584;2022-12-29T08:30:52;2.95;;;1.50;;
38208;SDS011;24016;52.102;11.584;2022-12-29T08:33:17;1.65;;;1.05;;
38208;SDS011;24016;52.102;11.584;2022-12-29T08:35:43;1.30;;;0.95;;
38208;SDS011;24016;52.102;11.584;2022-12-29T08:38:09;2.15;;;1.23;;
38208;SDS011;24016;52.102;11.584;2022-12-29T08:40:36;1.70;;;1.10;;
38208;SDS011;24016;52.102;11.584;2022-12-29T08:43:02;2.22;;;0.95;;
38208;SDS011;24016;52.102;11.584;2022-12-29T08:45:27;1.15;;;0.98;;
38208;SDS011;24016;52.102;11.584;2022-12-29T08:47:53;1.73;;;0.90;;
38208;SDS011;24016;52.102;11.584;2022-12-29T08:50:18;1.48;;;0.95;;
38208;SDS011;24016;52.102;11.584;2022-12-29T08:52:44;1.90;;;1.10;;
38208;SDS011;24016;52.102;11.584;2022-12-29T08:55:09;2.75;;;1.10;;
38208;SDS011;24016;52.102;11.584;2022-12-29T08:57:35;1.88;;;1.10;;
38208;SDS011;24016;52.102;11.584;2022-12-29T09:00:02;2.15;;;0.90;;
38208;SDS011;24016;52.102;11.584;2022-12-29T09:02:28;1.92;;;1.10;;
38208;SDS011;24016;52.102;11.584;2022-12-29T09:04:54;2.05;;;1.23;;
38208;SDS011;24016;52.102;11.584;2022-12-29T09:07:21;2.78;;;1.40;;
38208;SDS011;24016;52.102;11.584;2022-12-29T09:09:47;2.05;;;1.10;;
38208;SDS011;24016;52.102;11.584;2022-12-29T09:12:13;1.33;;;0.93;;
38208;SDS011;24016;52.102;11.584;2022-12-29T09:14:39;1.85;;;1.20;;
38208;SDS011;24016;52.102;11.584;2022-12-29T09:17:04;1.67;;;0.90;;
38208;SDS011;24016;52.102;11.584;2022-12-29T09:19:48;2.92;;;1.00;;
38208;SDS011;24016;52.102;11.584;2022-12-29T09:22:14;2.28;;;1.02;;
38208;SDS011;24016;52.102;11.584;2022-12-29T09:24:40;1.73;;;1.00;;
38208;SDS011;24016;52.102;11.584;2022-12-29T09:27:05;1.23;;;1.00;;
38208;SDS011;24016;52.102;11.584;2022-12-29T09:29:31;1.35;;;1.02;;
38208;SDS011;24016;52.102;11.584;2022-12-29T09:31:56;3.20;;;1.17;;
38208;SDS011;24016;52.102;11.584;2022-12-29T09:34:22;2.53;;;1.30;;
38208;SDS011;24016;52.102;11.584;2022-12-29T09:36:48;1.63;;;1.10;;
38208;SDS011;24016;52.102;11.584;2022-12-29T09:39:13;2.88;;;1.15;;
38208;SDS011;24016;52.102;11.584;2022-12-29T09:41:39;1.92;;;1.08;;
38208;SDS011;24016;52.102;11.584;2022-12-29T09:44:15;4.15;;;1.55;;
38208;SDS011;24016;52.102;11.584;2022-12-29T09:46:53;5.68;;;1.70;;
38208;SDS011;24016;52.102;11.584;2022-12-29T09:52:12;4.78;;;1.20;;
38208;SDS011;24016;52.102;11.584;2022-12-29T09:54:41;1.90;;;1.10;;
38208;SDS011;24016;52.102;11.584;2022-12-29T10:00:01;1.15;;;0.90;;
38208;SDS011;24016;52.102;11.584;2022-12-29T10:02:33;3.63;;;0.80;;
38208;SDS011;24016;52.102;11.584;2022-12-29T10:05:12;1.83;;;0.90;;
38208;SDS011;24016;52.102;11.584;2022-12-29T10:08:10;1.08;;;0.85;;
38208;SDS011;24016;52.102;11.584;2022-12-29T10:13:54;2.42;;;1.02;;
38208;SDS011;24016;52.102;11.584;2022-12-29T10:22:43;3.03;;;1.20;;
38208;SDS011;24016;52.102;11.584;2022-12-29T10:25:20;2.72;;;1.00;;
38208;SDS011;24016;52.102;11.584;2022-12-29T10:27:49;3.72;;;1.10;;
38208;SDS011;24016;52.102;11.584;2022-12-29T10:30:16;2.92;;;0.90;;
38208;SDS011;24016;52.102;11.584;2022-12-29T10:35:17;4.18;;;0.93;;
38208;SDS011;24016;52.102;11.584;2022-12-29T10:37:52;1.27;;;0.93;;
38208;SDS011;24016;52.102;11.584;2022-12-29T10:40:50;2.78;;;0.70;;
38208;SDS011;24016;52.102;11.584;2022-12-29T10:43:27;2.40;;;0.77;;
38208;SDS011;24016;52.102;11.584;2022-12-29T10:45:54;1.02;;;0.70;;
38208;SDS011;24016;52.102;11.584;2022-12-29T10:48:24;2.17;;;0.98;;
38208;SDS011;24016;52.102;11.584;2022-12-29T10:50:53;2.83;;;1.10;;
38208;SDS011;24016;52.102;11.584;2022-12-29T10:53:23;2.65;;;1.00;;
38208;SDS011;24016;52.102;11.584;2022-12-29T10:55:52;4.30;;;2.03;;
38208;SDS011;24016;52.102;11.584;2022-12-29T10:58:19;4.05;;;1.40;;
38208;SDS011;24016;52.102;11.584;2022-12-29T11:00:49;1.65;;;1.00;;
38208;SDS011;24016;52.102;11.584;2022-12-29T11:06:24;1.50;;;1.10;;
38208;SDS011;24016;52.102;11.584;2022-12-29T11:09:13;2.58;;;1.20;;
38208;SDS011;24016;52.102;11.584;2022-12-29T11:11:57;2.70;;;0.90;;
38208;SDS011;24016;52.102;11.584;2022-12-29T11:14:27;1.90;;;0.93;;
38208;SDS011;24016;52.102;11.584;2022-12-29T11:16:58;1.27;;;0.70;;
38208;SDS011;24016;52.102;11.584;2022-12-29T11:19:27;1.60;;;0.90;;
38208;SDS011;24016;52.102;11.584;2022-12-29T11:21:56;1.40;;;0.57;;
38208;SDS011;24016;52.102;11.584;2022-12-29T11:24:43;2.58;;;0.60;;
38208;SDS011;24016;52.102;11.584;2022-12-29T11:27:14;1.60;;;1.00;;
38208;SDS011;24016;52.102;11.584;2022-12-29T11:29:42;2.92;;;0.80;;
38208;SDS011;24016;52.102;11.584;2022-12-29T11:32:13;2.25;;;0.65;;
38208;SDS011;24016;52.102;11.584;2022-12-29T11:34:42;2.03;;;0.60;;
38208;SDS011;24016;52.102;11.584;2022-12-29T11:37:12;1.75;;;0.55;;
38208;SDS011;24016;52.102;11.584;2022-12-29T11:45:28;1.95;;;0.57;;
38208;SDS011;24016;52.102;11.584;2022-12-29T11:48:05;0.75;;;0.50;;
38208;SDS011;24016;52.102;11.584;2022-12-29T11:50:34;1.35;;;0.45;;
38208;SDS011;24016;52.102;11.584;2022-12-29T11:53:17;0.40;;;0.40;;
38208;SDS011;24016;52.102;11.584;2022-12-29T11:55:57;0.57;;;0.57;;
38208;SDS011;24016;52.102;11.584;2022-12-29T11:58:31;0.40;;;0.40;;
38208;SDS011;24016;52.102;11.584;2022-12-29T12:01:02;2.75;;;0.60;;
38208;SDS011;24016;52.102;11.584;2022-12-29T12:03:40;0.70;;;0.50;;
38208;SDS011;24016;52.102;11.584;2022-12-29T12:06:12;1.60;;;0.80;;
38208;SDS011;24016;52.102;11.584;2022-12-29T12:11:42;0.90;;;0.70;;
38208;SDS011;24016;52.102;11.584;2022-12-29T12:17:05;1.08;;;0.50;;
38208;SDS011;24016;52.102;11.584;2022-12-29T12:19:42;0.75;;;0.60;;
38208;SDS011;24016;52.102;11.584;2022-12-29T12:22:22;0.65;;;0.50;;
38208;SDS011;24016;52.102;11.584;2022-12-29T12:25:18;1.50;;;0.82;;
38208;SDS011;24016;52.102;11.584;2022-12-29T12:27:58;2.30;;;0.77;;
38208;SDS011;24016;52.102;11.584;2022-12-29T12:30:33;1.33;;;0.70;;
38208;SDS011;24016;52.102;11.584;2022-12-29T12:33:06;1.63;;;0.60;;
38208;SDS011;24016;52.102;11.584;2022-12-29T12:38:40;0.80;;;0.52;;
38208;SDS011;24016;52.102;11.584;2022-12-29T12:41:12;1.88;;;1.05;;
38208;SDS011;24016;52.102;11.584;2022-12-29T12:43:46;0.95;;;0.70;;
38208;SDS011;24016;52.102;11.584;2022-12-29T12:54:55;0.85;;;0.60;;
38208;SDS011;24016;52.102;11.584;2022-12-29T12:57:39;1.33;;;0.88;;
38208;SDS011;24016;52.102;11.584;2022-12-29T13:00:24;2.65;;;0.57;;
38208;SDS011;24016;52.102;11.584;2022-12-29T13:02:59;3.08;;;0.80;;
38208;SDS011;24016;52.102;11.584;2022-12-29T13:08:39;1.80;;;0.80;;
38208;SDS011;24016;52.102;11.584;2022-12-29T13:11:33;1.73;;;0.60;;
38208;SDS011;24016;52.102;11.584;2022-12-29T13:14:12;2.55;;;0.80;;
38208;SDS011;24016;52.102;11.584;2022-12-29T13:19:15;0.68;;;0.60;;
38208;SDS011;24016;52.102;11.584;2022-12-29T13:24:35;4.57;;;0.93;;
38208;SDS011;24016;52.102;11.584;2022-12-29T13:27:30;1.90;;;0.63;;
38208;SDS011;24016;52.102;11.584;2022-12-29T13:33:06;2.33;;;0.90;;
38208;SDS011;24016;52.102;11.584;2022-12-29T13:38:47;6.25;;;1.25;;
38208;SDS011;24016;52.102;11.584;2022-12-29T13:41:27;1.63;;;0.65;;
38208;SDS011;24016;52.102;11.584;2022-12-29T13:43:57;2.50;;;0.80;;
38208;SDS011;24016;52.102;11.584;2022-12-29T13:46:27;2.60;;;0.70;;
38208;SDS011;24016;52.102;11.584;2022-12-29T13:49:00;2.90;;;1.10;;
38208;SDS011;24016;52.102;11.584;2022-12-29T13:51:29;1.80;;;0.60;;
38208;SDS011;24016;52.102;11.584;2022-12-29T13:56:33;1.00;;;0.73;;
38208;SDS011;24016;52.102;11.584;2022-12-29T13:59:43;2.25;;;0.80;;
38208;SDS011;24016;52.102;11.584;2022-12-29T14:03:01;3.83;;;1.20;;
38208;SDS011;24016;52.102;11.584;2022-12-29T14:07:47;2.72;;;0.90;;
38208;SDS011;24016;52.102;11.584;2022-12-29T14:10:37;2.85;;;0.80;;
38208;SDS011;24016;52.102;11.584;2022-12-29T14:15:41;1.52;;;0.90;;
38208;SDS011;24016;52.102;11.584;2022-12-29T14:20:46;2.23;;;0.83;;
38208;SDS011;24016;52.102;11.584;2022-12-29T14:28:31;3.22;;;1.00;;
38208;SDS011;24016;52.102;11.584;2022-12-29T14:30:59;1.63;;;0.85;;
38208;SDS011;24016;52.102;11.584;2022-12-29T14:33:27;3.25;;;1.42;;
38208;SDS011;24016;52.102;11.584;2022-12-29T14:35:55;5.13;;;1.10;;
38208;SDS011;24016;52.102;11.584;2022-12-29T14:38:25;2.92;;;1.20;;
38208;SDS011;24016;52.102;11.584;2022-12-29T14:40:52;2.35;;;0.88;;
38208;SDS011;24016;52.102;11.584;2022-12-29T14:43:38;2.10;;;1.15;;
38208;SDS011;24016;52.102;11.584;2022-12-29T14:46:04;2.42;;;1.30;;
38208;SDS011;24016;52.102;11.584;2022-12-29T14:48:37;3.10;;;1.30;;
38208;SDS011;24016;52.102;11.584;2022-12-29T14:51:18;3.30;;;1.10;;
38208;SDS011;24016;52.102;11.584;2022-12-29T14:53:52;2.80;;;1.08;;
38208;SDS011;24016;52.102;11.584;2022-12-29T14:56:18;3.55;;;1.27;;
38208;SDS011;24016;52.102;11.584;2022-12-29T14:58:56;2.17;;;1.10;;
38208;SDS011;24016;52.102;11.584;2022-12-29T15:03:57;8.27;;;6.03;;
38208;SDS011;24016;52.102;11.584;2022-12-29T15:06:27;21.20;;;13.32;;
38208;SDS011;24016;52.102;11.584;2022-12-29T15:09:04;11.95;;;7.65;;
38208;SDS011;24016;52.102;11.584;2022-12-29T15:14:25;2.28;;;0.95;;
38208;SDS011;24016;52.102;11.584;2022-12-29T15:16:55;2.78;;;1.45;;
38208;SDS011;24016;52.102;11.584;2022-12-29T15:19:21;4.25;;;1.50;;
38208;SDS011;24016;52.102;11.584;2022-12-29T15:21:48;4.00;;;1.40;;
38208;SDS011;24016;52.102;11.584;2022-12-29T15:24:14;2.10;;;1.00;;
38208;SDS011;24016;52.102;11.584;2022-12-29T15:26:44;3.00;;;0.90;;
38208;SDS011;24016;52.102;11.584;2022-12-29T15:29:31;3.60;;;1.08;;
38208;SDS011;24016;52.102;11.584;2022-12-29T15:34:41;3.55;;;1.20;;
38208;SDS011;24016;52.102;11.584;2022-12-29T15:37:07;1.92;;;0.88;;
38208;SDS011;24016;52.102;11.584;2022-12-29T15:39:33;4.70;;;1.52;;
38208;SDS011;24016;52.102;11.584;2022-12-29T15:42:00;3.28;;;1.80;;
38208;SDS011;24016;52.102;11.584;2022-12-29T15:44:37;4.53;;;1.85;;
38208;SDS011;24016;52.102;11.584;2022-12-29T15:47:11;2.95;;;1.73;;
38208;SDS011;24016;52.102;11.584;2022-12-29T15:49:42;2.03;;;1.00;;
38208;SDS011;24016;52.102;11.584;2022-12-29T15:52:09;2.17;;;1.10;;
38208;SDS011;24016;52.102;11.584;2022-12-29T15:54:35;2.55;;;1.13;;
38208;SDS011;24016;52.102;11.584;2022-12-29T15:57:02;4.75;;;1.40;;
38208;SDS011;24016;52.102;11.584;2022-12-29T15:59:28;5.57;;;1.50;;
38208;SDS011;24016;52.102;11.584;2022-12-29T16:01:56;2.35;;;1.33;;
38208;SDS011;24016;52.102;11.584;2022-12-29T16:04:23;5.32;;;3.00;;
38208;SDS011;24016;52.102;11.584;2022-12-29T16:07:02;3.95;;;1.00;;
38208;SDS011;24016;52.102;11.584;2022-12-29T16:09:32;3.67;;;1.08;;
38208;SDS011;24016;52.102;11.584;2022-12-29T16:12:00;4.20;;;1.30;;
38208;SDS011;24016;52.102;11.584;2022-12-29T16:14:40;1.10;;;0.70;;
38208;SDS011;24016;52.102;11.584;2022-12-29T16:17:12;4.57;;;1.58;;
38208;SDS011;24016;52.102;11.584;2022-12-29T16:19:49;5.38;;;1.38;;
38208;SDS011;24016;52.102;11.584;2022-12-29T16:22:24;3.28;;;1.10;;
38208;SDS011;24016;52.102;11.584;2022-12-29T16:24:59;3.80;;;1.40;;
38208;SDS011;24016;52.102;11.584;2022-12-29T16:27:34;6.27;;;2.73;;
38208;SDS011;24016;52.102;11.584;2022-12-29T16:30:07;2.90;;;1.30;;
38208;SDS011;24016;52.102;11.584;2022-12-29T16:32:47;3.33;;;1.10;;
38208;SDS011;24016;52.102;11.584;2022-12-29T16:35:21;4.38;;;0.95;;
38208;SDS011;24016;52.102;11.584;2022-12-29T16:37:48;5.53;;;1.15;;
38208;SDS011;24016;52.102;11.584;2022-12-29T16:40:37;2.55;;;1.23;;